Time;durP1;ratioP1;P1;durP2;ratioP2;P2;SDS_P1;SDS_P2;PMS_P1;PMS_P2;Temp;Humidity;BMP_temperature;BMP_pressure;BME280_temperature;BME280_humidity;BME280_pressure;Samples;Min_cycle;Max_cycle;Signal;HPM_P1;HPM_P2
2022/03/20 00:00:53;;;;;;;22.50;10.48;;;7.00;71.40;;;6.63;47.84;102523.03;5178310;28;20507;-72
2022/03/20 00:03:25;;;;;;;21.05;9.75;;;6.90;71.30;;;6.59;47.03;102509.75;5178219;28;20053;-71
2022/03/20 00:05:58;;;;;;;20.90;10.35;;;7.00;70.90;;;6.61;47.07;102514.25;5178292;28;20056;-71
2022/03/20 00:08:32;;;;;;;22.30;10.55;;;6.90;70.90;;;6.60;46.87;102502.09;5178079;28;20430;-70
2022/03/20 00:11:04;;;;;;;24.75;10.60;;;6.90;70.80;;;6.57;46.76;102490.56;5178068;28;20084;-70
2022/03/20 00:13:36;;;;;;;22.73;11.23;;;6.90;70.50;;;6.56;46.40;102494.84;5178175;28;20086;-70
2022/03/20 00:16:08;;;;;;;20.95;10.68;;;6.90;70.60;;;6.50;47.90;102489.19;5178693;28;20042;-70
2022/03/20 00:18:40;;;;;;;15.90;8.77;;;6.90;70.90;;;6.47;47.34;102491.53;5177966;28;20442;-71
2022/03/20 00:21:12;;;;;;;22.02;10.15;;;6.80;70.40;;;6.43;46.80;102476.53;5177988;28;20054;-70
2022/03/20 00:23:47;;;;;;;18.90;9.32;;;6.80;70.20;;;6.42;46.21;102479.91;5185949;28;20693;-70
2022/03/20 00:26:19;;;;;;;22.75;10.88;;;6.80;69.80;;;6.42;46.42;102472.13;5175117;28;20049;-72
2022/03/20 00:28:51;;;;;;;20.05;9.85;;;6.70;69.70;;;6.42;46.32;102467.88;5169391;28;20421;-71
2022/03/20 00:31:23;;;;;;;19.95;9.13;;;6.70;69.60;;;6.42;45.92;102469.56;5180453;28;20050;-71
2022/03/20 00:33:55;;;;;;;19.27;8.93;;;6.70;69.10;;;6.43;46.97;102461.00;5180653;28;20133;-72
2022/03/20 00:36:27;;;;;;;22.73;9.90;;;6.70;69.80;;;6.45;46.41;102465.50;5180630;28;20057;-70
2022/03/20 00:39:00;;;;;;;22.83;10.68;;;6.70;69.50;;;6.46;46.12;102456.06;5179785;28;20048;-71
2022/03/20 00:41:32;;;;;;;19.20;9.60;;;6.70;69.40;;;6.44;45.88;102458.50;5176247;28;20061;-71
2022/03/20 00:44:05;;;;;;;21.30;9.48;;;6.70;69.00;;;6.41;45.68;102447.94;5180084;28;20068;-73
2022/03/20 00:46:37;;;;;;;18.98;9.23;;;6.70;68.30;;;6.44;45.85;102442.97;5180416;28;20042;-71
2022/03/20 00:49:09;;;;;;;18.65;9.60;;;6.70;68.80;;;6.43;45.10;102446.34;5165349;28;20054;-72
2022/03/20 00:51:41;;;;;;;22.52;9.98;;;6.70;68.00;;;6.42;45.03;102443.66;5166779;28;20054;-71
2022/03/20 00:54:14;;;;;;;19.70;9.20;;;6.70;67.90;;;6.47;45.85;102447.50;5166968;28;20141;-71
2022/03/20 00:56:46;;;;;;;18.98;9.35;;;6.70;68.30;;;6.49;45.61;102445.94;5166076;28;20714;-71
2022/03/20 00:59:18;;;;;;;22.00;9.82;;;6.70;69.00;;;6.47;45.40;102442.31;5166186;28;20190;-70
2022/03/20 01:01:51;;;;;;;17.25;9.15;;;6.70;68.10;;;6.50;45.99;102443.44;5166629;28;20051;-71
2022/03/20 01:04:22;;;;;;;19.23;9.50;;;6.70;68.70;;;6.55;45.66;102437.72;5166370;28;20132;-71
2022/03/20 01:06:58;;;;;;;17.58;9.05;;;6.70;69.10;;;6.57;45.95;102431.88;5166208;28;20057;-71
2022/03/20 01:09:32;;;;;;;24.88;9.55;;;6.70;68.70;;;6.60;46.28;102439.00;5148935;28;20050;-71
2022/03/20 01:12:08;;;;;;;19.65;8.70;;;6.70;69.80;;;6.59;46.59;102425.13;5145730;28;20051;-72
2022/03/20 01:14:40;;;;;;;19.65;9.27;;;6.70;70.30;;;6.58;46.60;102420.69;5153756;28;20504;-71
2022/03/20 01:17:12;;;;;;;19.98;9.18;;;6.70;69.80;;;6.60;46.38;102406.19;5165725;28;20050;-71
2022/03/20 01:19:44;;;;;;;22.63;11.25;;;6.70;70.30;;;6.63;46.62;102418.47;5160117;28;20046;-72
2022/03/20 01:22:16;;;;;;;23.75;11.13;;;6.70;70.70;;;6.61;46.37;102413.19;5158559;28;20536;-72
2022/03/20 01:24:50;;;;;;;18.90;9.27;;;6.70;70.00;;;6.59;46.32;102422.53;5156665;28;20109;-71
2022/03/20 01:27:22;;;;;;;18.50;9.18;;;6.70;70.10;;;6.58;46.74;102409.44;5151487;28;20241;-71
2022/03/20 01:29:54;;;;;;;18.00;9.65;;;6.60;71.10;;;6.55;46.40;102414.41;5145799;28;20047;-71
2022/03/20 01:32:28;;;;;;;20.67;9.75;;;6.60;70.60;;;6.51;46.86;102401.19;5146040;28;20057;-72
2022/03/20 01:35:00;;;;;;;22.50;10.82;;;6.60;71.40;;;6.48;46.91;102394.91;5148688;28;20471;-72
2022/03/20 01:37:32;;;;;;;24.65;10.35;;;6.60;70.80;;;6.43;47.57;102393.63;5165527;28;20503;-71
2022/03/20 01:40:07;;;;;;;27.25;13.15;;;6.50;72.00;;;6.38;47.18;102392.38;5165533;28;20054;-72
2022/03/20 01:42:39;;;;;;;30.30;11.38;;;6.50;71.30;;;6.37;48.09;102390.56;5165682;28;20137;-71
2022/03/20 01:45:17;;;;;;;23.55;10.60;;;6.50;72.90;;;6.34;49.08;102385.16;5165529;28;20056;-70
2022/03/20 01:47:51;;;;;;;20.98;9.15;;;6.40;74.10;;;6.28;49.03;102377.81;5165434;28;20061;-71
2022/03/20 01:50:26;;;;;;;17.15;9.00;;;6.30;75.10;;;6.22;49.63;102370.47;5165250;28;20057;-71
2022/03/20 01:52:58;;;;;;;20.30;9.27;;;6.30;75.70;;;6.16;49.46;102362.25;5164442;28;20056;-71
2022/03/20 01:55:32;;;;;;;21.45;8.93;;;6.30;76.30;;;6.14;50.25;102357.72;5165109;28;20050;-71
2022/03/20 01:58:04;;;;;;;22.20;9.27;;;6.30;76.60;;;6.12;49.76;102346.34;5163752;28;20105;-71
2022/03/20 02:00:36;;;;;;;20.92;9.75;;;6.20;76.10;;;6.10;48.93;102346.22;5162301;28;20052;-71
2022/03/20 02:03:08;;;;;;;19.02;9.15;;;6.20;74.60;;;6.12;48.94;102339.47;5163318;28;20050;-71
2022/03/20 02:05:42;;;;;;;20.60;9.38;;;6.20;74.90;;;6.11;47.84;102347.13;5165229;28;20051;-71
2022/03/20 02:08:15;;;;;;;17.27;8.98;;;6.20;72.80;;;6.13;48.86;102341.31;5164886;28;20057;-72
2022/03/20 02:10:49;;;;;;;20.80;8.90;;;6.20;74.60;;;6.12;49.11;102333.38;5165194;28;20061;-71
2022/03/20 02:13:22;;;;;;;19.67;9.65;;;6.20;74.90;;;6.08;49.33;102329.69;5165675;28;20050;-71
2022/03/20 02:15:54;;;;;;;21.90;9.50;;;6.20;75.90;;;6.06;50.19;102328.63;5164942;28;20050;-72
2022/03/20 02:18:26;;;;;;;18.90;8.27;;;6.10;76.50;;;6.03;49.97;102327.50;5164865;28;20046;-71
2022/03/20 02:21:03;;;;;;;21.20;9.35;;;6.10;77.30;;;5.98;50.48;102324.56;5164811;28;20052;-72
2022/03/20 02:23:36;;;;;;;19.15;9.50;;;6.10;77.60;;;5.93;50.85;102310.34;5163425;28;20519;-72
2022/03/20 02:26:09;;;;;;;18.52;8.57;;;6.00;78.60;;;5.87;51.21;102308.19;5152565;28;20150;-71
2022/03/20 02:28:41;;;;;;;23.02;9.85;;;6.00;78.90;;;5.85;50.49;102306.25;5160448;28;20050;-71
2022/03/20 02:31:13;;;;;;;17.90;9.13;;;5.90;77.70;;;5.85;51.17;102308.81;5164475;28;20054;-71
2022/03/20 02:33:45;;;;;;;20.95;9.27;;;5.90;79.00;;;5.85;51.61;102295.88;5156556;28;20062;-71
2022/03/20 02:36:19;;;;;;;19.05;9.00;;;5.90;79.70;;;5.86;51.13;102287.34;5164241;28;20046;-72
2022/03/20 02:38:51;;;;;;;19.08;8.57;;;5.90;79.50;;;5.86;50.94;102287.34;5164433;28;20053;-72
2022/03/20 02:41:24;;;;;;;19.30;8.77;;;5.90;79.50;;;5.87;51.08;102284.00;5164304;28;20050;-71
2022/03/20 02:43:57;;;;;;;18.17;8.88;;;5.90;79.50;;;5.88;51.37;102285.78;5164833;28;20058;-72
2022/03/20 02:46:31;;;;;;;16.33;8.57;;;5.90;79.80;;;5.87;51.13;102278.81;5164557;28;20046;-72
2022/03/20 02:49:03;;;;;;;19.35;10.60;;;5.90;79.40;;;5.86;50.99;102271.81;5164319;28;20053;-72
2022/03/20 02:51:37;;;;;;;18.55;8.80;;;5.90;79.40;;;5.86;51.23;102266.63;5164535;28;20052;-71
2022/03/20 02:54:10;;;;;;;18.13;8.55;;;5.90;79.70;;;5.85;50.44;102264.81;5164393;28;20096;-71
2022/03/20 02:56:42;;;;;;;21.33;8.68;;;5.90;78.30;;;5.87;49.70;102263.28;5164436;28;20054;-72
2022/03/20 02:59:14;;;;;;;17.77;8.23;;;5.90;76.70;;;5.88;50.00;102254.72;5164198;28;20514;-71
2022/03/20 03:01:46;;;;;;;21.23;9.60;;;5.90;77.80;;;5.88;50.51;102258.22;5162267;28;20083;-72
2022/03/20 03:04:20;;;;;;;17.45;8.55;;;5.90;78.40;;;5.86;50.18;102269.22;5164528;28;20146;-72
2022/03/20 03:06:53;;;;;;;19.73;9.30;;;5.90;77.40;;;5.81;50.50;102260.22;5164059;28;20046;-73
2022/03/20 03:12:15;;;;;;;17.92;8.85;;;5.80;78.60;;;5.68;48.75;102259.28;5163898;28;20140;-72
2022/03/20 03:17:36;;;;;;;19.85;9.05;;;5.80;75.10;;;5.69;49.27;102252.41;5163644;28;20081;-72
2022/03/20 03:20:10;;;;;;;23.45;9.50;;;5.80;75.70;;;5.65;49.95;102246.06;5164263;28;20057;-71
2022/03/20 03:22:43;;;;;;;18.77;9.38;;;5.80;77.30;;;5.59;50.62;102247.28;5164169;28;20050;-71
2022/03/20 03:25:16;;;;;;;18.48;8.40;;;5.70;78.20;;;5.51;50.22;102240.63;5164183;28;20407;-71
2022/03/20 03:27:48;;;;;;;19.92;9.02;;;5.70;77.70;;;5.43;49.81;102233.16;5163912;28;20069;-71
2022/03/20 03:30:21;;;;;;;20.80;8.68;;;5.60;76.50;;;5.41;50.70;102239.91;5163953;28;20057;-71
2022/03/20 03:32:53;;;;;;;17.88;9.20;;;5.60;78.30;;;5.36;50.93;102236.06;5164436;28;20054;-71
2022/03/20 03:35:42;;;;;;;17.35;8.32;;;5.50;79.60;;;5.29;51.69;102235.47;5163993;28;20052;-73
2022/03/20 03:38:18;;;;;;;19.02;10.18;;;5.40;81.10;;;5.22;52.63;102223.75;5163619;28;20055;-72
2022/03/20 03:40:51;;;;;;;18.45;9.50;;;5.30;82.50;;;5.13;52.75;102221.31;5164208;28;20054;-71
2022/03/20 03:43:24;;;;;;;23.02;9.18;;;5.30;83.10;;;5.05;53.13;102222.38;5163911;28;20204;-71
2022/03/20 03:45:56;;;;;;;19.50;9.07;;;5.20;83.50;;;4.97;53.47;102223.47;5164086;28;20050;-71
2022/03/20 03:48:28;;;;;;;21.17;8.85;;;5.10;84.80;;;4.91;54.07;102207.47;5163287;28;20050;-71
2022/03/20 03:51:00;;;;;;;20.20;9.98;;;5.10;85.70;;;4.84;54.50;102200.91;5163777;28;20051;-72
2022/03/20 03:53:34;;;;;;;20.10;9.40;;;5.00;86.70;;;4.78;54.59;102202.09;5163840;28;20046;-71
2022/03/20 03:56:06;;;;;;;20.35;9.90;;;4.90;86.90;;;4.74;54.34;102198.34;5164030;28;20057;-71
2022/03/20 03:58:38;;;;;;;24.02;9.93;;;4.90;86.60;;;4.72;52.67;102199.03;5163128;28;20088;-71
2022/03/20 04:01:10;;;;;;;27.25;10.23;;;4.90;82.70;;;4.78;52.10;102195.25;5163999;28;20050;-71
2022/03/20 04:03:42;;;;;;;21.02;10.23;;;4.90;81.70;;;4.78;50.43;102186.59;5163861;28;20056;-72
2022/03/20 04:06:14;;;;;;;24.67;10.55;;;5.00;78.50;;;4.90;50.47;102185.00;5163899;28;20245;-71
2022/03/20 04:08:47;;;;;;;24.25;10.15;;;5.10;79.00;;;4.98;50.46;102183.03;5163712;28;20472;-71
2022/03/20 04:11:19;;;;;;;23.38;10.48;;;5.10;78.70;;;5.02;50.07;102185.97;5163559;28;20056;-72
2022/03/20 04:13:51;;;;;;;21.52;9.57;;;5.20;77.90;;;5.02;49.14;102175.63;5163528;28;20046;-72
2022/03/20 04:16:23;;;;;;;23.60;10.25;;;5.30;76.20;;;5.04;48.87;102171.47;5163730;28;20054;-72
2022/03/20 04:18:55;;;;;;;23.25;10.35;;;5.30;75.10;;;5.07;49.15;102174.28;5163033;28;20046;-71
2022/03/20 04:21:27;;;;;;;21.20;9.43;;;5.30;75.00;;;5.10;48.74;102173.66;5163863;28;20046;-72
2022/03/20 04:24:01;;;;;;;24.42;10.15;;;5.40;74.70;;;5.10;48.59;102164.22;5166523;28;20141;-72
2022/03/20 04:26:34;;;;;;;25.35;11.05;;;5.40;74.10;;;5.10;48.50;102166.78;5167380;28;20487;-72
2022/03/20 04:29:06;;;;;;;25.30;11.32;;;5.40;73.60;;;5.14;48.21;102165.34;5167006;28;20422;-71
2022/03/20 04:31:38;;;;;;;25.33;10.85;;;5.50;73.50;;;5.16;48.19;102159.53;5167480;28;20046;-73
2022/03/20 04:34:10;;;;;;;25.65;10.70;;;5.50;73.30;;;5.16;48.04;102163.78;5167065;28;20076;-71
2022/03/20 04:36:42;;;;;;;22.88;10.45;;;5.50;72.80;;;5.16;48.11;102144.00;5167271;28;20054;-73
2022/03/20 04:39:16;;;;;;;26.08;10.82;;;5.50;72.50;;;5.20;48.08;102141.66;5166515;28;20050;-70
2022/03/20 04:41:48;;;;;;;26.95;11.15;;;5.50;72.50;;;5.26;47.94;102144.72;5167192;28;20051;-71
2022/03/20 04:44:22;;;;;;;21.30;10.27;;;5.60;72.40;;;5.27;47.75;102149.09;5166851;28;20057;-70
2022/03/20 04:46:54;;;;;;;28.60;10.75;;;5.60;72.20;;;5.27;47.60;102146.50;5167260;28;20055;-71
2022/03/20 05:00:51;;;;;;;23.42;10.88;;;5.70;71.30;;;5.36;47.17;102137.78;5166703;28;20181;-71
2022/03/20 05:03:23;;;;;;;33.65;11.70;;;5.70;71.10;;;5.38;47.41;102135.31;5166580;28;20050;-71
2022/03/20 05:05:56;;;;;;;23.27;10.18;;;5.70;71.20;;;5.42;47.28;102127.03;5160914;28;20070;-71
2022/03/20 05:08:28;;;;;;;28.02;12.38;;;5.80;71.00;;;5.43;47.38;102114.19;5165952;28;20046;-71
2022/03/20 05:13:51;;;;;;;24.20;11.38;;;5.80;71.00;;;5.49;47.41;102113.78;5193956;23;20130;-84
2022/03/20 05:16:23;;;;;;;26.48;10.35;;;5.90;71.10;;;5.51;47.12;102121.63;5200080;28;20046;-85
2022/03/20 05:18:54;;;;;;;25.05;11.20;;;5.80;70.60;;;5.45;46.80;102127.25;5205794;28;20065;-86
2022/03/20 05:21:26;;;;;;;22.42;10.52;;;5.80;70.70;;;5.53;47.09;102133.00;5199536;28;20058;-85
2022/03/20 05:23:58;;;;;;;23.45;10.50;;;5.80;70.70;;;5.54;46.67;102143.47;5199127;28;20062;-85
2022/03/20 05:26:32;;;;;;;25.52;11.77;;;5.80;70.70;;;5.50;46.83;102133.66;5200911;28;20050;-84
2022/03/20 05:29:04;;;;;;;20.48;9.35;;;5.80;70.60;;;5.56;47.13;102141.00;5199378;28;20064;-86
2022/03/20 05:31:37;;;;;;;26.35;11.40;;;5.80;70.60;;;5.57;47.09;102137.63;5200093;28;20081;-85
2022/03/20 05:34:08;;;;;;;25.17;10.55;;;5.80;70.50;;;5.59;46.99;102142.13;5197432;28;20053;-84
2022/03/20 05:36:40;;;;;;;24.45;11.60;;;5.80;70.50;;;5.65;47.07;102141.69;5198558;28;20547;-86
2022/03/20 05:39:13;;;;;;;24.38;10.57;;;5.90;70.90;;;5.67;46.95;102137.53;5206116;28;20112;-85
2022/03/20 05:41:51;;;;;;;25.17;10.52;;;5.90;70.60;;;5.69;46.44;102144.63;5210176;28;20060;-85
2022/03/20 05:44:25;;;;;;;26.65;11.60;;;5.90;70.40;;;5.77;46.77;102141.72;5209974;28;20104;-86
2022/03/20 05:46:58;;;;;;;23.45;10.30;;;6.00;70.70;;;5.82;47.07;102150.75;5195820;28;20057;-85
2022/03/20 05:49:29;;;;;;;23.83;9.82;;;6.00;71.20;;;5.84;46.73;102154.34;5195332;28;20421;-85
2022/03/20 05:52:01;;;;;;;21.63;10.18;;;6.00;71.10;;;5.85;46.92;102151.84;5195358;28;20594;-84
2022/03/20 05:54:34;;;;;;;23.85;11.18;;;6.00;70.90;;;5.85;46.58;102158.72;5195198;28;20133;-85
2022/03/20 05:59:58;;;;;;;25.13;9.88;;;6.10;71.00;;;5.92;46.58;102164.50;5193898;28;20061;-85
2022/03/20 06:02:30;;;;;;;23.38;10.38;;;6.10;70.70;;;5.97;46.60;102158.00;5194265;28;20046;-85
2022/03/20 06:05:02;;;;;;;25.30;11.35;;;6.10;70.70;;;6.08;46.74;102158.81;5194007;28;20053;-85
2022/03/20 06:07:34;;;;;;;23.92;10.80;;;6.20;70.90;;;6.18;46.75;102158.69;5194730;28;20053;-86
2022/03/20 06:10:10;;;;;;;23.88;10.73;;;6.30;71.10;;;6.28;46.63;102149.91;5195120;28;20064;-85
2022/03/20 06:12:44;;;;;;;26.95;11.40;;;6.40;70.70;;;6.39;46.28;102158.44;5195189;28;20060;-84
2022/03/20 06:15:16;;;;;;;26.88;10.93;;;6.50;70.60;;;6.50;45.95;102144.59;5194518;28;20221;-85
2022/03/20 06:17:48;;;;;;;27.88;11.18;;;6.60;70.10;;;6.57;46.04;102149.44;5193344;28;20049;-85
2022/03/20 06:20:20;;;;;;;27.52;11.70;;;6.60;69.40;;;6.77;45.65;102145.69;5194945;28;20048;-85
2022/03/20 06:22:52;;;;;;;25.45;10.90;;;6.80;69.60;;;7.00;45.13;102147.31;5195126;28;20064;-86
2022/03/20 06:25:25;;;;;;;22.77;11.23;;;6.90;69.20;;;7.24;44.15;102128.31;5192366;28;20042;-86
2022/03/20 06:28:00;;;;;;;26.15;11.48;;;7.10;67.60;;;8.04;43.26;102128.50;5193112;28;20071;-85
2022/03/20 06:30:34;;;;;;;;;;;7.60;67.50;;;8.70;40.81;102131.09;5192884;28;20057;-86
2022/03/20 06:33:07;;;;;;;24.45;10.85;;;8.00;64.90;;;9.26;39.92;102141.53;5192634;28;20322;-86
2022/03/20 06:35:39;;;;;;;23.55;10.82;;;8.60;63.40;;;9.54;39.12;102130.19;5193461;28;20052;-87
2022/03/20 06:38:11;;;;;;;29.35;12.10;;;9.00;61.50;;;9.97;38.23;102129.31;5194363;28;20045;-87
2022/03/20 06:40:43;;;;;;;22.75;11.40;;;9.30;60.30;;;10.07;37.91;102128.16;5196647;28;20057;-85
2022/03/20 06:43:17;;;;;;;25.38;11.55;;;9.60;59.50;;;10.44;37.17;102127.69;5196409;28;20052;-86
2022/03/20 06:45:49;;;;;;;24.52;11.43;;;9.90;58.90;;;10.76;36.99;102106.91;5195964;28;20121;-86
2022/03/20 06:48:21;;;;;;;22.63;11.43;;;10.10;58.20;;;11.08;36.08;102103.44;5196662;28;20056;-86
2022/03/20 06:50:53;;;;;;;25.05;11.88;;;10.50;57.20;;;11.22;35.36;102096.34;5196991;28;20063;-85
2022/03/20 06:53:25;;;;;;;28.05;11.98;;;10.70;56.10;;;11.42;35.37;102081.72;5199415;28;20151;-86
2022/03/20 06:55:57;;;;;;;27.15;12.10;;;10.80;55.80;;;11.32;35.19;102082.94;5197898;28;20057;-87
2022/03/20 06:58:31;;;;;;;25.77;12.18;;;10.90;55.30;;;11.37;35.13;102083.19;5194597;28;20140;-81
2022/03/20 07:01:03;;;;;;;23.90;12.05;;;11.00;55.30;;;11.43;35.22;102096.56;5194158;28;20061;-81
2022/03/20 07:03:35;;;;;;;23.60;10.93;;;11.00;55.00;;;11.94;34.94;102087.88;5194337;28;20061;-82
2022/03/20 07:06:07;;;;;;;24.30;12.27;;;11.30;55.30;;;12.55;33.76;102095.19;5194690;28;20057;-81
2022/03/20 07:08:39;;;;;;;23.73;11.68;;;11.60;54.00;;;12.59;33.24;102091.91;5191503;28;20532;-81
2022/03/20 07:11:11;;;;;;;25.45;11.93;;;11.80;53.20;;;12.83;33.01;102099.09;5193185;28;20109;-81
2022/03/20 07:13:53;;;;;;;26.48;12.48;;;12.00;52.90;;;12.78;32.54;102096.28;5192569;28;20065;-81
2022/03/20 07:16:29;;;;;;;;;;;12.10;52.20;;;13.53;32.44;102089.19;5193299;28;20077;-81
2022/03/20 07:19:01;;;;;;;21.63;11.52;;;12.50;52.30;;;14.25;30.83;102100.06;5193013;28;19921;-81
2022/03/20 07:21:33;;;;;;;24.70;12.10;;;13.00;51.40;;;14.08;30.76;102094.13;5193023;28;20057;-81
2022/03/20 07:24:06;;;;;;;24.42;12.57;;;13.10;50.40;;;14.46;30.86;102086.91;5192982;28;20137;-81
2022/03/20 07:29:32;;;;;;;26.13;12.77;;;13.50;49.70;;;14.37;30.25;102080.47;5193531;28;20151;-82
2022/03/20 07:32:07;;;;;;;23.95;12.32;;;13.50;49.60;;;14.59;30.71;102091.81;5193468;28;20056;-83
2022/03/20 07:34:40;;;;;;;25.23;12.10;;;13.60;50.10;;;14.95;29.78;102086.22;5192212;28;20061;-82
2022/03/20 07:37:15;;;;;;;27.90;13.77;;;13.80;49.50;;;14.88;29.70;102079.84;5191800;28;20054;-82
2022/03/20 07:39:50;;;;;;;25.63;13.40;;;13.80;48.80;;;15.06;29.41;102084.84;5192187;28;20046;-83
2022/03/20 07:42:23;;;;;;;27.58;13.55;;;14.00;48.70;;;15.21;29.71;102077.56;5192086;28;20145;-82
2022/03/20 07:44:56;;;;;;;27.50;13.23;;;14.10;48.80;;;15.48;28.79;102069.75;5194229;28;20373;-81
2022/03/20 07:47:28;;;;;;;26.90;12.65;;;14.30;48.00;;;15.86;28.96;102057.06;5190959;28;20056;-82
2022/03/20 07:50:01;;;;;;;24.35;13.52;;;14.60;48.50;;;16.38;27.96;102059.63;5190809;28;20054;-81
2022/03/20 07:52:34;;;;;;;26.17;13.50;;;15.00;47.30;;;16.54;27.81;102053.06;5190226;28;20058;-82
2022/03/20 07:55:08;;;;;;;29.52;13.98;;;15.20;47.20;;;16.77;27.52;102044.16;5195348;28;20085;-82
2022/03/20 07:57:43;;;;;;;28.17;14.45;;;15.40;46.60;;;17.16;27.13;102032.09;5195569;28;20077;-83
2022/03/20 08:00:17;;;;;;;28.58;13.98;;;15.70;46.20;;;16.37;27.38;102030.63;5197964;28;20436;-81
2022/03/20 08:02:51;;;;;;;;;;;15.50;45.70;;;15.72;28.41;102006.66;5197232;28;20058;-81
2022/03/20 08:05:25;;;;;;;27.92;13.27;;;15.00;46.40;;;14.94;29.55;102017.06;5195549;28;20295;-83
2022/03/20 08:07:58;;;;;;;26.42;13.30;;;14.50;47.10;;;15.26;29.36;102020.81;5194530;28;20050;-88
2022/03/20 08:10:30;;;;;;;30.05;13.43;;;14.50;48.40;;;15.45;28.91;102023.25;5190684;28;20058;-89
2022/03/20 08:13:02;;;;;;;24.73;13.63;;;14.60;47.30;;;15.68;28.85;102026.69;5190959;28;20046;-88
2022/03/20 08:15:36;;;;;;;25.83;12.82;;;14.60;47.50;;;16.48;28.55;102051.16;5193195;28;20402;-87
2022/03/20 08:18:08;;;;;;;28.67;13.60;;;15.00;47.70;;;16.94;27.25;102063.06;5190195;28;20056;-88
2022/03/20 08:20:42;;;;;;;28.02;13.75;;;15.40;46.40;;;16.12;27.53;102060.53;5190553;28;20387;-87
2022/03/20 08:23:14;;;;;;;26.23;13.02;;;15.20;46.00;;;15.20;29.07;102058.28;5192686;28;20083;-88
2022/03/20 08:25:47;;;;;;;27.13;13.15;;;14.60;47.00;;;14.96;29.93;102073.13;5196284;28;20073;-81
2022/03/20 08:28:19;;;;;;;27.83;12.07;;;14.30;47.80;;;15.35;32.36;102068.44;5189859;28;20136;-79
2022/03/20 08:30:52;;;;;;;31.25;12.40;;;14.50;52.90;;;15.58;32.65;102065.69;5189546;28;20050;-80
2022/03/20 08:33:24;;;;;;;31.10;14.32;;;14.70;52.90;;;15.25;30.93;102066.28;5191664;28;20073;-85
2022/03/20 08:35:56;;;;;;;28.73;13.75;;;14.70;49.90;;;14.72;30.85;102086.22;5198849;28;20050;-87
2022/03/20 08:38:28;;;;;;;25.10;12.82;;;14.40;48.80;;;14.28;31.36;102074.88;5198093;28;20061;-85
2022/03/20 08:41:00;;;;;;;28.52;14.55;;;13.90;49.20;;;13.83;32.25;102066.91;5197343;28;20060;-88
2022/03/20 08:43:32;;;;;;;27.27;13.35;;;13.50;49.90;;;13.54;32.90;102064.78;5191788;28;20488;-88
2022/03/20 08:46:06;;;;;;;28.38;13.75;;;13.20;50.70;;;13.10;33.10;102061.06;5209297;28;20048;-87
2022/03/20 08:48:38;;;;;;;29.02;13.88;;;12.80;51.10;;;12.71;33.99;102055.84;5210999;28;20038;-88
2022/03/20 08:51:10;;;;;;;29.83;13.98;;;12.50;51.90;;;12.40;34.37;102060.47;5209143;28;20045;-87
2022/03/20 08:53:42;;;;;;;30.90;14.15;;;12.20;52.50;;;11.78;36.16;102038.25;5194461;28;20069;-86
2022/03/20 08:56:14;;;;;;;33.30;14.95;;;11.70;53.50;;;11.57;36.57;102058.97;5192473;28;20050;-86
2022/03/20 08:58:48;;;;;;;27.48;13.05;;;11.50;54.40;;;11.37;38.47;102044.00;5194523;28;20094;-81
2022/03/20 09:01:22;;;;;;;29.02;13.73;;;11.20;57.30;;;11.58;38.72;102038.97;5197925;28;20511;-83
2022/03/20 09:03:54;;;;;;;32.92;14.45;;;11.40;58.30;;;11.87;37.35;102064.88;5195858;28;20065;-86
2022/03/20 09:06:26;;;;;;;31.40;13.52;;;11.60;55.90;;;11.38;37.78;102051.03;5194129;28;20065;-85
2022/03/20 09:08:58;;;;;;;29.35;13.85;;;11.40;55.40;;;11.22;38.04;102043.22;5194073;28;20061;-87
2022/03/20 09:11:30;;;;;;;27.60;12.85;;;11.20;55.90;;;11.21;41.12;102025.75;5193658;28;20054;-83
2022/03/20 09:14:02;;;;;;;29.08;12.85;;;11.20;60.30;;;11.58;38.23;102039.88;5191985;28;20058;-85
2022/03/20 09:19:26;;;;;;;32.33;15.05;;;11.20;56.50;;;11.25;38.57;102049.50;5195265;28;20104;-85
2022/03/20 09:21:58;;;;;;;29.27;14.80;;;11.10;56.70;;;11.30;38.27;102041.91;5192942;28;20054;-85
2022/03/20 09:24:30;;;;;;;29.60;13.68;;;11.10;56.90;;;11.22;38.39;102032.78;5193059;28;20470;-83
2022/03/20 09:27:02;;;;;;;29.98;13.45;;;11.00;56.90;;;11.05;38.88;102051.06;5184382;28;20046;-85
2022/03/20 09:29:34;;;;;;;32.53;14.48;;;10.90;57.10;;;10.94;39.27;102040.88;5178980;28;20058;-83
2022/03/20 09:32:09;;;;;;;34.17;15.05;;;10.90;57.60;;;10.95;39.36;102025.28;5182492;28;20065;-85
2022/03/20 09:34:41;;;;;;;30.80;13.93;;;10.80;57.70;;;10.90;39.73;102034.59;5184237;28;20053;-83
2022/03/20 09:37:13;;;;;;;31.02;13.88;;;10.80;58.10;;;11.05;39.58;102014.53;5180126;28;20053;-86
2022/03/20 09:39:45;;;;;;;32.75;14.45;;;10.90;58.20;;;11.35;39.09;102007.38;5184834;28;20419;-84
2022/03/20 09:42:19;;;;;;;26.95;13.55;;;11.10;57.90;;;11.97;38.76;102024.41;5234260;28;20049;-84
2022/03/20 09:44:53;;;;;;;29.60;13.68;;;11.40;58.00;;;12.41;37.56;102030.88;5233335;28;20111;-85
2022/03/20 09:47:26;;;;;;;31.15;14.63;;;11.90;57.00;;;12.72;36.73;102031.47;5233302;28;20075;-84
2022/03/20 09:49:58;;;;;;;30.13;14.15;;;12.20;55.90;;;12.83;35.89;102033.66;5233108;28;20055;-83
2022/03/20 09:52:30;;;;;;;31.20;14.80;;;12.40;55.10;;;12.77;36.68;102014.22;5233096;28;20057;-82
2022/03/20 09:55:05;;;;;;;24.30;10.60;;;12.50;55.40;;;13.26;39.54;102021.69;5232613;28;20055;-83
2022/03/20 09:57:37;;;;;;;36.83;16.98;;;12.80;59.50;;;13.73;35.13;102025.41;5233045;28;20049;-87
2022/03/20 10:00:14;;;;;;;29.45;14.48;;;13.20;54.30;;;14.07;34.56;102026.78;5233471;28;20053;-84
2022/03/20 10:02:48;;;;;;;27.83;14.98;;;13.50;53.50;;;13.92;34.66;102020.94;5234005;28;20060;-85
2022/03/20 10:05:22;;;;;;;28.52;13.85;;;13.50;53.60;;;13.88;35.14;102027.75;5234149;28;20049;-86
2022/03/20 10:07:54;;;;;;;29.27;14.18;;;13.50;53.80;;;13.83;35.40;102030.22;5233617;28;20048;-85
2022/03/20 10:10:28;;;;;;;30.35;13.05;;;13.60;53.60;;;13.71;35.25;102032.31;5234880;28;20052;-85
2022/03/20 10:13:00;;;;;;;27.63;13.63;;;13.50;53.80;;;13.61;35.23;102030.13;5235642;28;20506;-84
2022/03/20 10:15:35;;;;;;;33.45;15.45;;;13.40;53.80;;;13.55;35.43;102032.50;5232761;28;20052;-84
2022/03/20 10:18:15;;;;;;;33.60;16.17;;;13.30;53.90;;;13.25;36.01;102043.47;5234753;28;20499;-84
2022/03/20 10:20:50;;;;;;;31.25;14.55;;;13.10;54.10;;;12.78;36.82;102036.09;5230980;28;20127;-85
2022/03/20 10:23:30;;;;;;;31.83;15.48;;;12.70;54.60;;;12.55;37.51;102032.41;5228572;28;20045;-85
2022/03/20 10:26:06;;;;;;;31.38;13.90;;;12.50;55.70;;;12.45;39.54;102036.31;5223472;28;20033;-83
2022/03/20 10:28:40;;;;;;;27.55;13.05;;;12.40;57.90;;;12.88;41.27;102026.91;5229538;28;20053;-87
2022/03/20 10:31:17;;;;;;;28.70;14.43;;;12.60;61.60;;;12.92;37.35;102026.25;5232726;28;20513;-84
2022/03/20 10:34:01;;;;;;;29.15;14.20;;;12.80;55.90;;;12.87;38.36;102004.19;5233192;28;20045;-85
2022/03/20 10:36:34;;;;;;;29.58;14.20;;;12.80;57.80;;;12.98;36.97;102000.34;5233513;28;20102;-84
2022/03/20 10:39:11;;;;;;;29.45;14.73;;;12.80;55.40;;;12.92;37.58;102007.91;5232646;28;20056;-84
2022/03/20 10:41:45;;;;;;;30.75;15.35;;;12.80;55.80;;;12.84;38.08;102020.63;5230536;28;20048;-85
2022/03/20 10:44:19;;;;;;;31.23;14.55;;;12.70;56.20;;;12.97;37.05;101988.94;5229627;28;20059;-84
2022/03/20 10:46:57;;;;;;;30.63;14.85;;;12.80;55.80;;;13.02;37.85;101999.63;5230854;28;20049;-82
2022/03/20 10:49:30;;;;;;;32.47;14.65;;;12.80;56.50;;;12.73;37.83;102006.19;5232208;28;20103;-84
2022/03/20 10:52:05;;;;;;;35.38;14.98;;;12.70;56.20;;;12.63;37.98;102012.72;5231204;28;20049;-83
2022/03/20 10:54:43;;;;;;;29.35;14.63;;;12.50;56.20;;;12.59;38.52;102013.41;5232020;28;20051;-84
2022/03/20 10:57:16;;;;;;;29.73;15.23;;;12.40;56.80;;;12.65;38.44;102011.09;5231791;28;20052;-84
2022/03/20 10:59:59;;;;;;;32.92;14.40;;;12.40;57.00;;;12.64;38.56;101995.28;5232167;28;20048;-84
2022/03/20 11:02:31;;;;;;;31.55;14.48;;;12.40;57.30;;;12.89;37.98;101984.22;5233392;28;20045;-85